sensor_id;sensor_type;location;lat;lon;timestamp;P1;durP1;ratioP1;P2;durP2;ratioP2
60979;SDS011;46851;49.160;8.980;2023-05-07T00:00:04;4.03;;;3.22;;
60979;SDS011;46851;49.160;8.980;2023-05-07T00:02:33;4.00;;;3.40;;
60979;SDS011;46851;49.160;8.980;2023-05-07T00:05:00;7.55;;;3.05;;
60979;SDS011;46851;49.160;8.980;2023-05-07T00:07:27;5.45;;;3.20;;
60979;SDS011;46851;49.160;8.980;2023-05-07T00:09:53;7.15;;;3.00;;
60979;SDS011;46851;49.160;8.980;2023-05-07T00:12:19;3.40;;;3.10;;
60979;SDS011;46851;49.160;8.980;2023-05-07T00:14:45;4.78;;;3.03;;
60979;SDS011;46851;49.160;8.980;2023-05-07T00:17:11;3.35;;;2.78;;
60979;SDS011;46851;49.160;8.980;2023-05-07T00:19:37;6.07;;;3.40;;
60979;SDS011;46851;49.160;8.980;2023-05-07T00:22:03;6.68;;;3.50;;
60979;SDS011;46851;49.160;8.980;2023-05-07T00:24:29;3.97;;;3.00;;
60979;SDS011;46851;49.160;8.980;2023-05-07T00:26:55;5.95;;;3.10;;
60979;SDS011;46851;49.160;8.980;2023-05-07T00:29:23;6.40;;;3.42;;
60979;SDS011;46851;49.160;8.980;2023-05-07T00:31:49;5.57;;;3.05;;
60979;SDS011;46851;49.160;8.980;2023-05-07T00:34:15;6.30;;;3.30;;
60979;SDS011;46851;49.160;8.980;2023-05-07T00:36:41;6.53;;;3.25;;
60979;SDS011;46851;49.160;8.980;2023-05-07T00:39:07;5.43;;;3.00;;
60979;SDS011;46851;49.160;8.980;2023-05-07T00:41:34;5.32;;;3.55;;
60979;SDS011;46851;49.160;8.980;2023-05-07T00:44:00;5.13;;;3.47;;
60979;SDS011;46851;49.160;8.980;2023-05-07T00:46:27;7.93;;;4.88;;
60979;SDS011;46851;49.160;8.980;2023-05-07T00:48:53;4.88;;;3.13;;
60979;SDS011;46851;49.160;8.980;2023-05-07T00:51:20;4.90;;;2.90;;
60979;SDS011;46851;49.160;8.980;2023-05-07T00:53:46;5.65;;;3.30;;
60979;SDS011;46851;49.160;8.980;2023-05-07T00:56:12;5.15;;;3.10;;
60979;SDS011;46851;49.160;8.980;2023-05-07T00:58:38;6.43;;;3.10;;
60979;SDS011;46851;49.160;8.980;2023-05-07T01:01:04;3.05;;;2.70;;
60979;SDS011;46851;49.160;8.980;2023-05-07T01:03:31;7.00;;;3.45;;
60979;SDS011;46851;49.160;8.980;2023-05-07T01:09:01;7.65;;;3.17;;
60979;SDS011;46851;49.160;8.980;2023-05-07T01:11:29;4.53;;;3.10;;
60979;SDS011;46851;49.160;8.980;2023-05-07T01:13:55;4.47;;;3.05;;
60979;SDS011;46851;49.160;8.980;2023-05-07T01:16:21;6.28;;;3.25;;
60979;SDS011;46851;49.160;8.980;2023-05-07T01:18:47;7.82;;;3.45;;
60979;SDS011;46851;49.160;8.980;2023-05-07T01:21:14;4.20;;;3.60;;
60979;SDS011;46851;49.160;8.980;2023-05-07T01:23:41;7.78;;;3.20;;
60979;SDS011;46851;49.160;8.980;2023-05-07T01:26:07;7.72;;;3.17;;
60979;SDS011;46851;49.160;8.980;2023-05-07T01:28:33;4.80;;;3.15;;
60979;SDS011;46851;49.160;8.980;2023-05-07T01:31:00;4.55;;;3.70;;
60979;SDS011;46851;49.160;8.980;2023-05-07T01:33:27;5.32;;;3.67;;
60979;SDS011;46851;49.160;8.980;2023-05-07T01:35:56;5.40;;;3.40;;
60979;SDS011;46851;49.160;8.980;2023-05-07T01:38:25;4.22;;;3.60;;
60979;SDS011;46851;49.160;8.980;2023-05-07T01:40:51;5.20;;;3.67;;
60979;SDS011;46851;49.160;8.980;2023-05-07T01:43:17;5.53;;;3.63;;
60979;SDS011;46851;49.160;8.980;2023-05-07T01:48:40;4.53;;;3.80;;
60979;SDS011;46851;49.160;8.980;2023-05-07T01:51:10;7.22;;;3.67;;
60979;SDS011;46851;49.160;8.980;2023-05-07T01:53:37;4.53;;;3.75;;
60979;SDS011;46851;49.160;8.980;2023-05-07T01:56:03;4.82;;;3.75;;
60979;SDS011;46851;49.160;8.980;2023-05-07T01:58:29;5.88;;;3.55;;
60979;SDS011;46851;49.160;8.980;2023-05-07T02:00:55;5.05;;;3.33;;
60979;SDS011;46851;49.160;8.980;2023-05-07T02:03:21;5.53;;;3.63;;
60979;SDS011;46851;49.160;8.980;2023-05-07T02:05:47;8.13;;;3.95;;
60979;SDS011;46851;49.160;8.980;2023-05-07T02:08:13;4.80;;;3.65;;
60979;SDS011;46851;49.160;8.980;2023-05-07T02:10:39;6.88;;;3.60;;
60979;SDS011;46851;49.160;8.980;2023-05-07T02:13:05;6.60;;;3.30;;
60979;SDS011;46851;49.160;8.980;2023-05-07T02:15:32;5.22;;;3.38;;
60979;SDS011;46851;49.160;8.980;2023-05-07T02:17:59;7.10;;;4.55;;
60979;SDS011;46851;49.160;8.980;2023-05-07T02:20:25;5.32;;;3.20;;
60979;SDS011;46851;49.160;8.980;2023-05-07T02:22:51;6.57;;;3.35;;
60979;SDS011;46851;49.160;8.980;2023-05-07T02:25:17;5.30;;;3.40;;
60979;SDS011;46851;49.160;8.980;2023-05-07T02:27:43;4.68;;;3.38;;
60979;SDS011;46851;49.160;8.980;2023-05-07T02:30:09;6.50;;;3.70;;
60979;SDS011;46851;49.160;8.980;2023-05-07T02:32:36;4.10;;;3.40;;
60979;SDS011;46851;49.160;8.980;2023-05-07T02:35:02;5.38;;;3.78;;
60979;SDS011;46851;49.160;8.980;2023-05-07T02:37:28;8.77;;;3.95;;
60979;SDS011;46851;49.160;8.980;2023-05-07T02:39:54;4.43;;;3.70;;
60979;SDS011;46851;49.160;8.980;2023-05-07T02:42:20;6.53;;;3.70;;
60979;SDS011;46851;49.160;8.980;2023-05-07T02:44:46;5.78;;;3.72;;
60979;SDS011;46851;49.160;8.980;2023-05-07T02:47:13;6.22;;;4.18;;
60979;SDS011;46851;49.160;8.980;2023-05-07T02:49:39;6.30;;;3.95;;
60979;SDS011;46851;49.160;8.980;2023-05-07T02:52:05;5.55;;;4.00;;
60979;SDS011;46851;49.160;8.980;2023-05-07T02:54:31;9.38;;;4.10;;
60979;SDS011;46851;49.160;8.980;2023-05-07T02:56:57;6.75;;;3.90;;
60979;SDS011;46851;49.160;8.980;2023-05-07T02:59:23;7.05;;;4.20;;
60979;SDS011;46851;49.160;8.980;2023-05-07T03:01:51;11.30;;;4.22;;
60979;SDS011;46851;49.160;8.980;2023-05-07T03:04:17;7.88;;;4.30;;
60979;SDS011;46851;49.160;8.980;2023-05-07T03:06:43;7.10;;;4.03;;
60979;SDS011;46851;49.160;8.980;2023-05-07T03:09:09;7.82;;;4.47;;
60979;SDS011;46851;49.160;8.980;2023-05-07T03:11:35;5.53;;;4.25;;
60979;SDS011;46851;49.160;8.980;2023-05-07T03:14:01;6.32;;;4.35;;
60979;SDS011;46851;49.160;8.980;2023-05-07T03:16:27;4.82;;;4.20;;
60979;SDS011;46851;49.160;8.980;2023-05-07T03:18:53;7.05;;;4.38;;
60979;SDS011;46851;49.160;8.980;2023-05-07T03:21:19;6.10;;;4.03;;
60979;SDS011;46851;49.160;8.980;2023-05-07T03:23:45;9.57;;;3.92;;
60979;SDS011;46851;49.160;8.980;2023-05-07T03:26:11;7.82;;;4.32;;
60979;SDS011;46851;49.160;8.980;2023-05-07T03:28:37;7.38;;;4.18;;
60979;SDS011;46851;49.160;8.980;2023-05-07T03:31:03;6.07;;;4.15;;
60979;SDS011;46851;49.160;8.980;2023-05-07T03:33:30;6.03;;;4.75;;
60979;SDS011;46851;49.160;8.980;2023-05-07T03:35:56;5.53;;;4.13;;
60979;SDS011;46851;49.160;8.980;2023-05-07T03:38:22;6.85;;;3.92;;
60979;SDS011;46851;49.160;8.980;2023-05-07T03:40:48;5.53;;;3.78;;
60979;SDS011;46851;49.160;8.980;2023-05-07T03:43:14;5.25;;;3.80;;
60979;SDS011;46851;49.160;8.980;2023-05-07T03:45:40;7.93;;;4.07;;
60979;SDS011;46851;49.160;8.980;2023-05-07T03:48:06;5.68;;;4.10;;
60979;SDS011;46851;49.160;8.980;2023-05-07T03:50:32;5.88;;;3.95;;
60979;SDS011;46851;49.160;8.980;2023-05-07T03:52:58;8.18;;;3.97;;
60979;SDS011;46851;49.160;8.980;2023-05-07T03:55:23;5.32;;;3.83;;
60979;SDS011;46851;49.160;8.980;2023-05-07T03:57:50;7.28;;;3.85;;
60979;SDS011;46851;49.160;8.980;2023-05-07T04:00:16;6.00;;;3.38;;
60979;SDS011;46851;49.160;8.980;2023-05-07T04:02:42;8.50;;;3.97;;
60979;SDS011;46851;49.160;8.980;2023-05-07T04:05:08;6.72;;;4.07;;
60979;SDS011;46851;49.160;8.980;2023-05-07T04:07:34;4.20;;;3.80;;
60979;SDS011;46851;49.160;8.980;2023-05-07T04:10:00;8.68;;;3.85;;
60979;SDS011;46851;49.160;8.980;2023-05-07T04:12:27;5.68;;;3.50;;
60979;SDS011;46851;49.160;8.980;2023-05-07T04:14:53;4.80;;;3.47;;
60979;SDS011;46851;49.160;8.980;2023-05-07T04:17:19;6.07;;;4.00;;
60979;SDS011;46851;49.160;8.980;2023-05-07T04:19:45;6.45;;;3.80;;
60979;SDS011;46851;49.160;8.980;2023-05-07T04:22:11;6.72;;;3.65;;
60979;SDS011;46851;49.160;8.980;2023-05-07T04:24:37;9.13;;;3.85;;
60979;SDS011;46851;49.160;8.980;2023-05-07T04:27:03;5.28;;;3.67;;
60979;SDS011;46851;49.160;8.980;2023-05-07T04:29:31;6.13;;;3.97;;
60979;SDS011;46851;49.160;8.980;2023-05-07T04:31:57;4.30;;;3.45;;
60979;SDS011;46851;49.160;8.980;2023-05-07T04:34:23;6.18;;;3.40;;
60979;SDS011;46851;49.160;8.980;2023-05-07T04:36:49;5.57;;;3.55;;
60979;SDS011;46851;49.160;8.980;2023-05-07T04:39:15;3.95;;;3.17;;
60979;SDS011;46851;49.160;8.980;2023-05-07T04:41:41;4.57;;;3.03;;
60979;SDS011;46851;49.160;8.980;2023-05-07T04:44:07;6.28;;;3.55;;
60979;SDS011;46851;49.160;8.980;2023-05-07T04:46:34;4.22;;;3.17;;
60979;SDS011;46851;49.160;8.980;2023-05-07T04:49:00;5.72;;;3.38;;
60979;SDS011;46851;49.160;8.980;2023-05-07T04:51:26;7.28;;;3.58;;
60979;SDS011;46851;49.160;8.980;2023-05-07T04:53:52;5.00;;;3.45;;
60979;SDS011;46851;49.160;8.980;2023-05-07T04:56:18;4.57;;;3.03;;
60979;SDS011;46851;49.160;8.980;2023-05-07T04:58:45;6.05;;;2.67;;
60979;SDS011;46851;49.160;8.980;2023-05-07T05:01:11;4.40;;;2.63;;
60979;SDS011;46851;49.160;8.980;2023-05-07T05:03:37;3.92;;;2.83;;
60979;SDS011;46851;49.160;8.980;2023-05-07T05:06:04;4.50;;;2.75;;
60979;SDS011;46851;49.160;8.980;2023-05-07T05:08:30;8.15;;;2.65;;
60979;SDS011;46851;49.160;8.980;2023-05-07T05:10:56;3.50;;;2.65;;
60979;SDS011;46851;49.160;8.980;2023-05-07T05:13:23;4.70;;;2.55;;
60979;SDS011;46851;49.160;8.980;2023-05-07T05:15:49;6.32;;;2.50;;
60979;SDS011;46851;49.160;8.980;2023-05-07T05:18:15;4.22;;;2.63;;
60979;SDS011;46851;49.160;8.980;2023-05-07T05:20:41;2.83;;;2.47;;
60979;SDS011;46851;49.160;8.980;2023-05-07T05:23:07;2.80;;;2.50;;
60979;SDS011;46851;49.160;8.980;2023-05-07T05:25:33;3.72;;;2.50;;
60979;SDS011;46851;49.160;8.980;2023-05-07T05:27:59;5.00;;;2.90;;
60979;SDS011;46851;49.160;8.980;2023-05-07T05:30:26;4.00;;;2.50;;
60979;SDS011;46851;49.160;8.980;2023-05-07T05:32:52;3.55;;;2.60;;
60979;SDS011;46851;49.160;8.980;2023-05-07T05:35:18;4.22;;;2.60;;
60979;SDS011;46851;49.160;8.980;2023-05-07T05:37:44;3.38;;;2.60;;
60979;SDS011;46851;49.160;8.980;2023-05-07T05:40:10;3.83;;;2.60;;
60979;SDS011;46851;49.160;8.980;2023-05-07T05:42:36;6.28;;;2.53;;
60979;SDS011;46851;49.160;8.980;2023-05-07T05:45:02;4.95;;;2.47;;
60979;SDS011;46851;49.160;8.980;2023-05-07T05:47:29;3.50;;;2.70;;
60979;SDS011;46851;49.160;8.980;2023-05-07T05:49:55;3.67;;;2.50;;
60979;SDS011;46851;49.160;8.980;2023-05-07T05:52:21;3.95;;;2.95;;
60979;SDS011;46851;49.160;8.980;2023-05-07T05:54:48;2.78;;;2.50;;
60979;SDS011;46851;49.160;8.980;2023-05-07T05:57:15;4.28;;;2.95;;
60979;SDS011;46851;49.160;8.980;2023-05-07T05:59:41;4.25;;;2.97;;
60979;SDS011;46851;49.160;8.980;2023-05-07T06:02:07;4.18;;;3.05;;
60979;SDS011;46851;49.160;8.980;2023-05-07T06:04:33;4.55;;;2.88;;
60979;SDS011;46851;49.160;8.980;2023-05-07T06:06:59;5.13;;;2.97;;
60979;SDS011;46851;49.160;8.980;2023-05-07T06:09:25;3.85;;;2.70;;
60979;SDS011;46851;49.160;8.980;2023-05-07T06:11:51;6.03;;;2.90;;
60979;SDS011;46851;49.160;8.980;2023-05-07T06:14:17;5.93;;;2.90;;
60979;SDS011;46851;49.160;8.980;2023-05-07T06:16:43;4.40;;;2.85;;
60979;SDS011;46851;49.160;8.980;2023-05-07T06:19:09;5.63;;;2.67;;
60979;SDS011;46851;49.160;8.980;2023-05-07T06:21:35;4.10;;;2.58;;
60979;SDS011;46851;49.160;8.980;2023-05-07T06:24:01;7.13;;;2.80;;
60979;SDS011;46851;49.160;8.980;2023-05-07T06:26:27;4.75;;;2.30;;
60979;SDS011;46851;49.160;8.980;2023-05-07T06:28:53;2.70;;;2.40;;
60979;SDS011;46851;49.160;8.980;2023-05-07T06:31:19;4.53;;;2.42;;
60979;SDS011;46851;49.160;8.980;2023-05-07T06:33:45;4.35;;;2.35;;
60979;SDS011;46851;49.160;8.980;2023-05-07T06:36:12;3.22;;;2.47;;
60979;SDS011;46851;49.160;8.980;2023-05-07T06:38:38;3.55;;;2.45;;
60979;SDS011;46851;49.160;8.980;2023-05-07T06:41:05;5.22;;;2.88;;
60979;SDS011;46851;49.160;8.980;2023-05-07T06:43:31;5.18;;;2.42;;
60979;SDS011;46851;49.160;8.980;2023-05-07T06:45:57;5.45;;;2.22;;
60979;SDS011;46851;49.160;8.980;2023-05-07T06:48:23;2.63;;;2.17;;
60979;SDS011;46851;49.160;8.980;2023-05-07T06:50:49;2.40;;;2.20;;
60979;SDS011;46851;49.160;8.980;2023-05-07T06:53:15;5.40;;;2.65;;
60979;SDS011;46851;49.160;8.980;2023-05-07T06:55:41;2.50;;;2.28;;
60979;SDS011;46851;49.160;8.980;2023-05-07T06:58:07;6.07;;;2.47;;
60979;SDS011;46851;49.160;8.980;2023-05-07T07:00:33;3.35;;;2.28;;
60979;SDS011;46851;49.160;8.980;2023-05-07T07:03:00;3.83;;;2.30;;
60979;SDS011;46851;49.160;8.980;2023-05-07T07:05:26;3.05;;;2.20;;
60979;SDS011;46851;49.160;8.980;2023-05-07T07:07:52;4.63;;;2.05;;
60979;SDS011;46851;49.160;8.980;2023-05-07T07:10:18;3.58;;;2.38;;
60979;SDS011;46851;49.160;8.980;2023-05-07T07:12:45;2.78;;;2.00;;
60979;SDS011;46851;49.160;8.980;2023-05-07T07:15:11;2.78;;;2.20;;
60979;SDS011;46851;49.160;8.980;2023-05-07T07:17:37;4.22;;;2.10;;
60979;SDS011;46851;49.160;8.980;2023-05-07T07:20:03;3.20;;;2.05;;
60979;SDS011;46851;49.160;8.980;2023-05-07T07:22:29;3.00;;;2.03;;
60979;SDS011;46851;49.160;8.980;2023-05-07T07:24:55;3.35;;;1.83;;
60979;SDS011;46851;49.160;8.980;2023-05-07T07:27:21;2.97;;;1.70;;
60979;SDS011;46851;49.160;8.980;2023-05-07T07:29:47;3.83;;;1.65;;
60979;SDS011;46851;49.160;8.980;2023-05-07T07:32:13;3.85;;;1.63;;
60979;SDS011;46851;49.160;8.980;2023-05-07T07:34:39;3.58;;;1.58;;
60979;SDS011;46851;49.160;8.980;2023-05-07T07:37:05;2.42;;;2.00;;
60979;SDS011;46851;49.160;8.980;2023-05-07T07:39:32;2.25;;;2.05;;
60979;SDS011;46851;49.160;8.980;2023-05-07T07:41:58;2.67;;;1.63;;
60979;SDS011;46851;49.160;8.980;2023-05-07T07:44:24;1.90;;;1.65;;
60979;SDS011;46851;49.160;8.980;2023-05-07T07:46:50;4.75;;;2.10;;
60979;SDS011;46851;49.160;8.980;2023-05-07T07:49:16;2.40;;;1.60;;
60979;SDS011;46851;49.160;8.980;2023-05-07T07:51:42;4.13;;;2.30;;
60979;SDS011;46851;49.160;8.980;2023-05-07T07:54:08;1.83;;;1.60;;
60979;SDS011;46851;49.160;8.980;2023-05-07T07:56:34;4.25;;;1.67;;
60979;SDS011;46851;49.160;8.980;2023-05-07T07:59:00;2.28;;;1.70;;
60979;SDS011;46851;49.160;8.980;2023-05-07T08:01:26;4.90;;;1.75;;
60979;SDS011;46851;49.160;8.980;2023-05-07T08:03:52;2.50;;;1.73;;
60979;SDS011;46851;49.160;8.980;2023-05-07T08:06:19;4.57;;;1.85;;
60979;SDS011;46851;49.160;8.980;2023-05-07T08:08:45;4.45;;;1.90;;
60979;SDS011;46851;49.160;8.980;2023-05-07T08:11:11;4.18;;;1.80;;
60979;SDS011;46851;49.160;8.980;2023-05-07T08:13:37;3.78;;;1.90;;
60979;SDS011;46851;49.160;8.980;2023-05-07T08:16:04;2.40;;;1.90;;
60979;SDS011;46851;49.160;8.980;2023-05-07T08:18:30;3.63;;;1.90;;
60979;SDS011;46851;49.160;8.980;2023-05-07T08:20:56;3.35;;;2.22;;
60979;SDS011;46851;49.160;8.980;2023-05-07T08:23:22;2.92;;;2.03;;
60979;SDS011;46851;49.160;8.980;2023-05-07T08:25:48;3.63;;;2.13;;
60979;SDS011;46851;49.160;8.980;2023-05-07T08:28:15;3.90;;;2.00;;
60979;SDS011;46851;49.160;8.980;2023-05-07T08:30:41;3.95;;;1.63;;
60979;SDS011;46851;49.160;8.980;2023-05-07T08:33:08;2.78;;;1.98;;
60979;SDS011;46851;49.160;8.980;2023-05-07T08:35:34;1.90;;;1.80;;
60979;SDS011;46851;49.160;8.980;2023-05-07T08:38:00;2.97;;;1.60;;
60979;SDS011;46851;49.160;8.980;2023-05-07T08:40:26;3.63;;;1.65;;
60979;SDS011;46851;49.160;8.980;2023-05-07T08:42:53;2.90;;;1.90;;
60979;SDS011;46851;49.160;8.980;2023-05-07T08:45:19;3.17;;;1.80;;
60979;SDS011;46851;49.160;8.980;2023-05-07T08:47:52;3.75;;;1.80;;
60979;SDS011;46851;49.160;8.980;2023-05-07T08:50:21;2.80;;;1.60;;
60979;SDS011;46851;49.160;8.980;2023-05-07T08:52:47;2.85;;;1.65;;
60979;SDS011;46851;49.160;8.980;2023-05-07T08:55:13;5.05;;;1.88;;
60979;SDS011;46851;49.160;8.980;2023-05-07T08:57:40;2.40;;;1.60;;
60979;SDS011;46851;49.160;8.980;2023-05-07T09:00:06;2.05;;;1.40;;
60979;SDS011;46851;49.160;8.980;2023-05-07T09:02:32;2.00;;;1.42;;
60979;SDS011;46851;49.160;8.980;2023-05-07T09:04:58;4.07;;;1.80;;
60979;SDS011;46851;49.160;8.980;2023-05-07T09:07:25;3.17;;;1.60;;
60979;SDS011;46851;49.160;8.980;2023-05-07T09:09:51;2.22;;;1.70;;
60979;SDS011;46851;49.160;8.980;2023-05-07T09:12:18;3.58;;;1.60;;
60979;SDS011;46851;49.160;8.980;2023-05-07T09:14:45;2.25;;;1.80;;
60979;SDS011;46851;49.160;8.980;2023-05-07T09:17:11;1.65;;;1.55;;
60979;SDS011;46851;49.160;8.980;2023-05-07T09:19:37;3.22;;;1.80;;
60979;SDS011;46851;49.160;8.980;2023-05-07T09:22:04;4.15;;;1.90;;
60979;SDS011;46851;49.160;8.980;2023-05-07T09:24:34;3.72;;;1.73;;
60979;SDS011;46851;49.160;8.980;2023-05-07T09:27:02;2.00;;;1.70;;
60979;SDS011;46851;49.160;8.980;2023-05-07T09:29:28;2.22;;;1.90;;
60979;SDS011;46851;49.160;8.980;2023-05-07T09:31:59;2.85;;;1.95;;
60979;SDS011;46851;49.160;8.980;2023-05-07T09:34:25;2.65;;;1.83;;
60979;SDS011;46851;49.160;8.980;2023-05-07T09:36:51;6.03;;;2.03;;
60979;SDS011;46851;49.160;8.980;2023-05-07T09:39:19;3.95;;;1.52;;
60979;SDS011;46851;49.160;8.980;2023-05-07T09:41:48;3.67;;;1.90;;
60979;SDS011;46851;49.160;8.980;2023-05-07T09:44:16;3.47;;;1.83;;
60979;SDS011;46851;49.160;8.980;2023-05-07T09:46:43;3.10;;;1.42;;
60979;SDS011;46851;49.160;8.980;2023-05-07T09:49:19;2.38;;;1.77;;
60979;SDS011;46851;49.160;8.980;2023-05-07T09:51:48;2.63;;;1.88;;
60979;SDS011;46851;49.160;8.980;2023-05-07T09:54:14;3.25;;;1.65;;
60979;SDS011;46851;49.160;8.980;2023-05-07T09:56:40;4.28;;;1.98;;
60979;SDS011;46851;49.160;8.980;2023-05-07T09:59:08;1.83;;;1.70;;
60979;SDS011;46851;49.160;8.980;2023-05-07T10:01:36;3.00;;;2.38;;
60979;SDS011;46851;49.160;8.980;2023-05-07T10:04:02;2.67;;;1.70;;
60979;SDS011;46851;49.160;8.980;2023-05-07T10:06:29;2.90;;;1.40;;
60979;SDS011;46851;49.160;8.980;2023-05-07T10:08:55;6.68;;;1.70;;
60979;SDS011;46851;49.160;8.980;2023-05-07T10:11:22;2.70;;;1.65;;
60979;SDS011;46851;49.160;8.980;2023-05-07T10:13:48;2.40;;;1.60;;
60979;SDS011;46851;49.160;8.980;2023-05-07T10:16:14;2.25;;;1.65;;
60979;SDS011;46851;49.160;8.980;2023-05-07T10:18:41;2.55;;;1.60;;
60979;SDS011;46851;49.160;8.980;2023-05-07T10:21:07;2.80;;;1.52;;
60979;SDS011;46851;49.160;8.980;2023-05-07T10:23:34;2.95;;;1.45;;
60979;SDS011;46851;49.160;8.980;2023-05-07T10:26:04;3.15;;;1.58;;
60979;SDS011;46851;49.160;8.980;2023-05-07T10:28:32;3.55;;;1.60;;
60979;SDS011;46851;49.160;8.980;2023-05-07T10:33:28;2.80;;;1.85;;
60979;SDS011;46851;49.160;8.980;2023-05-07T10:35:59;3.00;;;1.83;;
60979;SDS011;46851;49.160;8.980;2023-05-07T10:38:27;3.47;;;1.70;;
60979;SDS011;46851;49.160;8.980;2023-05-07T10:40:53;4.32;;;1.52;;
60979;SDS011;46851;49.160;8.980;2023-05-07T10:43:19;2.60;;;2.00;;
60979;SDS011;46851;49.160;8.980;2023-05-07T10:48:30;2.33;;;1.60;;
60979;SDS011;46851;49.160;8.980;2023-05-07T10:53:41;1.85;;;1.60;;
60979;SDS011;46851;49.160;8.980;2023-05-07T10:58:42;2.15;;;1.80;;
60979;SDS011;46851;49.160;8.980;2023-05-07T11:01:08;2.38;;;1.73;;
60979;SDS011;46851;49.160;8.980;2023-05-07T11:03:36;3.70;;;2.00;;
60979;SDS011;46851;49.160;8.980;2023-05-07T11:06:22;2.60;;;1.95;;
60979;SDS011;46851;49.160;8.980;2023-05-07T11:08:57;4.28;;;1.70;;
60979;SDS011;46851;49.160;8.980;2023-05-07T11:11:43;3.05;;;1.83;;
60979;SDS011;46851;49.160;8.980;2023-05-07T11:14:10;2.70;;;1.60;;
60979;SDS011;46851;49.160;8.980;2023-05-07T11:16:36;1.90;;;1.75;;
60979;SDS011;46851;49.160;8.980;2023-05-07T11:19:03;3.63;;;1.50;;
60979;SDS011;46851;49.160;8.980;2023-05-07T11:26:24;4.22;;;1.70;;
60979;SDS011;46851;49.160;8.980;2023-05-07T11:28:51;3.33;;;2.00;;
60979;SDS011;46851;49.160;8.980;2023-05-07T11:34:25;2.58;;;1.73;;
60979;SDS011;46851;49.160;8.980;2023-05-07T11:36:51;2.33;;;1.60;;
60979;SDS011;46851;49.160;8.980;2023-05-07T11:39:24;3.03;;;1.80;;
60979;SDS011;46851;49.160;8.980;2023-05-07T11:41:50;2.58;;;1.80;;
60979;SDS011;46851;49.160;8.980;2023-05-07T11:44:16;15.65;;;2.20;;
60979;SDS011;46851;49.160;8.980;2023-05-07T11:46:42;5.10;;;1.80;;
60979;SDS011;46851;49.160;8.980;2023-05-07T11:49:09;2.13;;;1.70;;
60979;SDS011;46851;49.160;8.980;2023-05-07T11:51:35;2.53;;;1.77;;
60979;SDS011;46851;49.160;8.980;2023-05-07T11:54:03;2.53;;;1.70;;
60979;SDS011;46851;49.160;8.980;2023-05-07T11:56:33;2.90;;;1.73;;
60979;SDS011;46851;49.160;8.980;2023-05-07T11:59:00;3.90;;;1.60;;
60979;SDS011;46851;49.160;8.980;2023-05-07T12:01:26;2.20;;;1.83;;
60979;SDS011;46851;49.160;8.980;2023-05-07T12:03:52;2.10;;;1.38;;
60979;SDS011;46851;49.160;8.980;2023-05-07T12:06:18;1.77;;;1.30;;
60979;SDS011;46851;49.160;8.980;2023-05-07T12:08:44;2.58;;;1.50;;
60979;SDS011;46851;49.160;8.980;2023-05-07T12:11:22;4.68;;;1.60;;
60979;SDS011;46851;49.160;8.980;2023-05-07T12:13:48;3.55;;;1.40;;
60979;SDS011;46851;49.160;8.980;2023-05-07T12:16:14;2.53;;;1.23;;
60979;SDS011;46851;49.160;8.980;2023-05-07T12:18:40;4.60;;;1.20;;
60979;SDS011;46851;49.160;8.980;2023-05-07T12:21:06;3.90;;;1.50;;
60979;SDS011;46851;49.160;8.980;2023-05-07T12:23:36;1.65;;;1.27;;
60979;SDS011;46851;49.160;8.980;2023-05-07T12:26:02;1.75;;;1.27;;
60979;SDS011;46851;49.160;8.980;2023-05-07T12:28:28;2.13;;;1.23;;
60979;SDS011;46851;49.160;8.980;2023-05-07T12:30:55;2.40;;;1.27;;
60979;SDS011;46851;49.160;8.980;2023-05-07T12:33:25;3.95;;;1.23;;
60979;SDS011;46851;49.160;8.980;2023-05-07T12:35:54;1.58;;;1.02;;
60979;SDS011;46851;49.160;8.980;2023-05-07T12:38:20;3.17;;;1.25;;
60979;SDS011;46851;49.160;8.980;2023-05-07T12:40:50;2.88;;;1.13;;
60979;SDS011;46851;49.160;8.980;2023-05-07T12:45:46;7.10;;;1.30;;
60979;SDS011;46851;49.160;8.980;2023-05-07T12:48:12;1.42;;;1.05;;
60979;SDS011;46851;49.160;8.980;2023-05-07T12:50:39;2.58;;;1.15;;
60979;SDS011;46851;49.160;8.980;2023-05-07T12:53:05;1.90;;;1.10;;
60979;SDS011;46851;49.160;8.980;2023-05-07T12:55:39;1.95;;;1.13;;
60979;SDS011;46851;49.160;8.980;2023-05-07T12:58:05;1.13;;;1.02;;
60979;SDS011;46851;49.160;8.980;2023-05-07T13:00:38;1.88;;;1.13;;
60979;SDS011;46851;49.160;8.980;2023-05-07T13:03:04;3.70;;;1.33;;
60979;SDS011;46851;49.160;8.980;2023-05-07T13:05:31;3.20;;;1.38;;
60979;SDS011;46851;49.160;8.980;2023-05-07T13:07:57;2.72;;;1.15;;
60979;SDS011;46851;49.160;8.980;2023-05-07T13:10:23;2.67;;;1.20;;
60979;SDS011;46851;49.160;8.980;2023-05-07T13:12:50;3.88;;;1.30;;
60979;SDS011;46851;49.160;8.980;2023-05-07T13:15:16;9.52;;;1.50;;
60979;SDS011;46851;49.160;8.980;2023-05-07T13:17:43;3.00;;;1.20;;
60979;SDS011;46851;49.160;8.980;2023-05-07T13:20:09;2.50;;;1.50;;
60979;SDS011;46851;49.160;8.980;2023-05-07T13:22:36;4.43;;;1.35;;
60979;SDS011;46851;49.160;8.980;2023-05-07T13:25:02;2.75;;;1.23;;
60979;SDS011;46851;49.160;8.980;2023-05-07T13:27:28;1.55;;;1.05;;
60979;SDS011;46851;49.160;8.980;2023-05-07T13:29:55;2.40;;;1.00;;
60979;SDS011;46851;49.160;8.980;2023-05-07T13:32:21;1.63;;;1.10;;
60979;SDS011;46851;49.160;8.980;2023-05-07T13:34:47;1.88;;;1.30;;
60979;SDS011;46851;49.160;8.980;2023-05-07T13:37:13;4.97;;;1.98;;
60979;SDS011;46851;49.160;8.980;2023-05-07T13:39:39;1.75;;;1.10;;
60979;SDS011;46851;49.160;8.980;2023-05-07T13:42:09;1.60;;;1.50;;
60979;SDS011;46851;49.160;8.980;2023-05-07T13:44:35;1.58;;;1.10;;
60979;SDS011;46851;49.160;8.980;2023-05-07T13:47:01;2.95;;;1.23;;
60979;SDS011;46851;49.160;8.980;2023-05-07T13:49:27;3.40;;;1.15;;
60979;SDS011;46851;49.160;8.980;2023-05-07T13:51:53;1.20;;;1.10;;
60979;SDS011;46851;49.160;8.980;2023-05-07T13:54:19;4.30;;;1.40;;
60979;SDS011;46851;49.160;8.980;2023-05-07T13:56:45;2.53;;;1.10;;
60979;SDS011;46851;49.160;8.980;2023-05-07T13:59:11;2.75;;;1.20;;
60979;SDS011;46851;49.160;8.980;2023-05-07T14:01:39;2.15;;;1.30;;
60979;SDS011;46851;49.160;8.980;2023-05-07T14:04:05;1.70;;;1.42;;
60979;SDS011;46851;49.160;8.980;2023-05-07T14:06:31;3.92;;;1.30;;
60979;SDS011;46851;49.160;8.980;2023-05-07T14:08:57;4.72;;;1.17;;
60979;SDS011;46851;49.160;8.980;2023-05-07T14:11:23;4.78;;;1.60;;
60979;SDS011;46851;49.160;8.980;2023-05-07T14:13:49;4.47;;;1.92;;
60979;SDS011;46851;49.160;8.980;2023-05-07T14:16:15;9.15;;;2.08;;
60979;SDS011;46851;49.160;8.980;2023-05-07T14:18:41;2.80;;;1.70;;
60979;SDS011;46851;49.160;8.980;2023-05-07T14:21:07;3.15;;;1.83;;
60979;SDS011;46851;49.160;8.980;2023-05-07T14:23:34;4.53;;;1.58;;
60979;SDS011;46851;49.160;8.980;2023-05-07T14:26:01;6.78;;;1.80;;
60979;SDS011;46851;49.160;8.980;2023-05-07T14:28:27;3.72;;;2.05;;
60979;SDS011;46851;49.160;8.980;2023-05-07T14:33:56;5.45;;;2.50;;
60979;SDS011;46851;49.160;8.980;2023-05-07T14:36:23;7.53;;;2.90;;
60979;SDS011;46851;49.160;8.980;2023-05-07T14:38:51;6.75;;;2.33;;
60979;SDS011;46851;49.160;8.980;2023-05-07T14:41:17;6.07;;;2.60;;
60979;SDS011;46851;49.160;8.980;2023-05-07T14:43:43;4.55;;;2.25;;
60979;SDS011;46851;49.160;8.980;2023-05-07T14:46:15;4.32;;;2.25;;
60979;SDS011;46851;49.160;8.980;2023-05-07T14:48:41;6.28;;;2.20;;
60979;SDS011;46851;49.160;8.980;2023-05-07T14:51:07;5.50;;;2.10;;
60979;SDS011;46851;49.160;8.980;2023-05-07T14:53:33;3.55;;;2.20;;
60979;SDS011;46851;49.160;8.980;2023-05-07T14:55:59;8.40;;;2.40;;
60979;SDS011;46851;49.160;8.980;2023-05-07T14:58:25;7.13;;;2.40;;
60979;SDS011;46851;49.160;8.980;2023-05-07T15:00:51;5.13;;;2.47;;
60979;SDS011;46851;49.160;8.980;2023-05-07T15:03:17;4.68;;;2.50;;
60979;SDS011;46851;49.160;8.980;2023-05-07T15:05:43;4.50;;;2.50;;
60979;SDS011;46851;49.160;8.980;2023-05-07T15:08:09;4.53;;;3.03;;
60979;SDS011;46851;49.160;8.980;2023-05-07T15:10:36;4.00;;;2.70;;
60979;SDS011;46851;49.160;8.980;2023-05-07T15:13:05;8.80;;;2.70;;